Time;durP1;ratioP1;P1;durP2;ratioP2;P2;SDS_P1;SDS_P2;PMS_P1;PMS_P2;Temp;Humidity;BMP_temperature;BMP_pressure;BME280_temperature;BME280_humidity;BME280_pressure;Samples;Min_cycle;Max_cycle;Signal;HPM_P1;HPM_P2
2022/07/09 00:00:01;;;;;;;11.07;4.50;;;16.10;72.70;;;;;;5088651;28;20417;-74
2022/07/09 00:02:26;;;;;;;8.80;4.37;;;16.00;72.90;;;;;;5083927;28;20469;-72
2022/07/09 00:04:52;;;;;;;9.40;4.60;;;16.00;72.90;;;;;;5085774;28;20295;-74
2022/07/09 00:07:17;;;;;;;7.50;4.00;;;16.00;73.20;;;;;;5058888;28;20213;-74
2022/07/09 00:09:43;;;;;;;6.13;4.20;;;16.00;73.20;;;;;;5082176;28;20501;-72
2022/07/09 00:12:09;;;;;;;5.93;3.43;;;15.90;73.50;;;;;;5079653;28;20205;-75
2022/07/09 00:14:35;;;;;;;8.10;4.33;;;15.90;73.60;;;;;;5083621;28;20224;-72
2022/07/09 00:17:00;;;;;;;7.23;4.07;;;15.80;74.20;;;;;;5080465;28;20199;-74
2022/07/09 00:19:26;;;;;;;6.87;4.10;;;15.70;74.30;;;;;;5084216;28;20172;-73
2022/07/09 00:21:52;;;;;;;6.27;3.87;;;15.60;74.50;;;;;;5082317;28;20195;-74
2022/07/09 00:24:17;;;;;;;11.33;3.80;;;15.60;74.60;;;;;;5075079;28;20645;-73
2022/07/09 00:26:43;;;;;;;6.03;4.20;;;15.60;74.20;;;;;;5083524;28;20176;-73
2022/07/09 00:29:09;;;;;;;5.93;4.13;;;15.60;74.50;;;;;;5080692;28;20181;-75
2022/07/09 00:31:34;;;;;;;7.70;4.10;;;15.60;74.50;;;;;;5086326;28;20220;-72
2022/07/09 00:34:00;;;;;;;8.93;4.13;;;15.60;74.50;;;;;;5063551;28;20206;-74
2022/07/09 00:36:25;;;;;;;6.40;3.80;;;15.60;74.60;;;;;;5086291;28;20271;-73
2022/07/09 00:38:51;;;;;;;7.20;4.20;;;15.50;74.50;;;;;;5077785;28;20189;-74
2022/07/09 00:41:16;;;;;;;6.30;4.07;;;15.50;74.50;;;;;;5083896;28;20201;-73
2022/07/09 00:43:48;;;;;;;6.47;3.73;;;15.50;74.50;;;;;;5081609;28;20198;-74
2022/07/09 00:46:14;;;;;;;5.93;4.00;;;15.50;74.20;;;;;;5080089;28;20293;-73
2022/07/09 00:48:39;;;;;;;7.80;3.80;;;15.50;74.30;;;;;;5081060;28;20428;-73
2022/07/09 00:51:05;;;;;;;7.37;4.20;;;15.50;74.20;;;;;;5078347;28;20417;-74
2022/07/09 00:53:31;;;;;;;8.27;4.00;;;15.60;74.00;;;;;;5069069;28;20643;-74
2022/07/09 00:55:58;;;;;;;7.87;4.70;;;15.60;74.00;;;;;;5084272;28;20282;-73
2022/07/09 00:58:24;;;;;;;13.23;5.07;;;15.60;74.00;;;;;;5080942;28;20415;-75
2022/07/09 01:00:51;;;;;;;7.53;4.03;;;15.60;74.30;;;;;;5084916;28;20481;-74
2022/07/09 01:03:16;;;;;;;5.90;3.80;;;15.60;74.50;;;;;;5062303;28;20596;-74
2022/07/09 01:05:42;;;;;;;9.10;4.03;;;15.50;74.80;;;;;;5086027;28;20482;-74
2022/07/09 01:08:09;;;;;;;6.93;4.03;;;15.40;74.90;;;;;;5077052;28;20681;-74
2022/07/09 01:10:35;;;;;;;6.70;4.17;;;15.40;75.20;;;;;;5079244;28;20218;-73
2022/07/09 01:13:02;;;;;;;5.70;3.67;;;15.30;75.70;;;;;;5085132;28;20544;-74
2022/07/09 01:15:28;;;;;;;5.27;4.03;;;15.30;75.70;;;;;;5079921;28;20513;-73
2022/07/09 01:17:55;;;;;;;9.10;4.67;;;15.20;76.10;;;;;;5082705;28;20427;-74
2022/07/09 01:20:30;;;;;;;6.30;4.07;;;15.20;76.20;;;;;;5080683;28;20511;-74
2022/07/09 01:22:57;;;;;;;6.53;3.97;;;15.20;76.20;;;;;;5084680;28;20464;-74
2022/07/09 01:25:35;;;;;;;6.33;4.40;;;15.20;76.20;;;;;;5080340;28;20891;-74
2022/07/09 01:28:01;;;;;;;5.57;3.70;;;15.10;76.10;;;;;;5081762;28;20827;-73
2022/07/09 01:30:28;;;;;;;6.53;4.17;;;15.10;75.70;;;;;;5078294;28;20444;-75
2022/07/09 01:32:54;;;;;;;15.50;4.50;;;15.10;75.80;;;;;;5061247;28;20456;-74
2022/07/09 01:35:21;;;;;;;4.90;3.73;;;15.10;75.70;;;;;;5086757;28;20424;-73
2022/07/09 01:37:47;;;;;;;12.70;4.53;;;15.10;75.40;;;;;;5089008;28;20925;-74
2022/07/09 01:40:13;;;;;;;6.10;4.10;;;15.10;75.50;;;;;;5081164;28;20490;-74
2022/07/09 01:42:38;;;;;;;11.30;4.60;;;15.00;75.70;;;;;;5088326;28;20552;-74
2022/07/09 01:45:04;;;;;;;6.77;3.97;;;15.00;75.70;;;;;;5076843;28;20180;-73
2022/07/09 01:47:30;;;;;;;5.30;4.47;;;15.10;75.70;;;;;;5083304;28;20185;-73
2022/07/09 01:49:56;;;;;;;5.23;3.73;;;15.10;75.90;;;;;;5079095;28;20423;-73
2022/07/09 01:52:21;;;;;;;4.63;3.53;;;15.10;76.10;;;;;;5081835;28;20693;-73
2022/07/09 01:54:47;;;;;;;17.23;4.10;;;15.00;76.20;;;;;;5078946;28;20180;-75
2022/07/09 01:57:13;;;;;;;12.13;5.37;;;15.00;76.40;;;;;;5082403;28;20209;-73
2022/07/09 01:59:39;;;;;;;8.97;4.13;;;14.90;76.20;;;;;;5079471;28;20183;-73
2022/07/09 02:02:05;;;;;;;5.83;4.00;;;14.90;76.50;;;;;;5063204;28;21024;-74
2022/07/09 02:04:31;;;;;;;7.57;4.80;;;14.90;76.70;;;;;;5080998;28;20389;-74
2022/07/09 02:06:56;;;;;;;6.20;4.00;;;14.80;76.80;;;;;;5083438;28;20443;-73
2022/07/09 02:09:22;;;;;;;5.87;3.90;;;14.70;77.00;;;;;;5082208;28;20539;-74
2022/07/09 02:11:48;;;;;;;8.80;4.33;;;14.80;76.80;;;;;;5077681;28;20252;-73
2022/07/09 02:14:14;;;;;;;5.13;3.60;;;14.70;76.80;;;;;;5090736;28;20606;-73
2022/07/09 02:16:39;;;;;;;8.43;4.13;;;14.70;77.00;;;;;;5088431;28;20259;-74
2022/07/09 02:19:06;;;;;;;6.47;4.13;;;14.60;77.30;;;;;;5066631;28;20430;-74
2022/07/09 02:21:32;;;;;;;5.90;4.00;;;14.70;77.40;;;;;;5087065;28;20184;-73
2022/07/09 02:23:58;;;;;;;5.17;4.03;;;14.70;77.40;;;;;;5087697;28;20486;-74
2022/07/09 02:26:29;;;;;;;6.20;3.53;;;14.60;77.80;;;;;;5080281;28;20425;-73
2022/07/09 02:28:57;;;;;;;7.60;3.77;;;14.60;78.00;;;;;;5086412;28;21306;-75
2022/07/09 02:31:23;;;;;;;14.07;4.67;;;14.50;78.30;;;;;;5085907;28;20429;-74
2022/07/09 02:33:49;;;;;;;10.17;3.63;;;14.50;78.30;;;;;;5087109;28;20544;-74
2022/07/09 02:36:15;;;;;;;12.77;4.40;;;14.50;78.30;;;;;;5082381;28;20473;-74
2022/07/09 02:38:40;;;;;;;6.17;3.70;;;14.50;78.40;;;;;;5086621;28;20183;-73
2022/07/09 02:41:06;;;;;;;8.17;4.40;;;14.40;78.90;;;;;;5077611;28;20642;-73
2022/07/09 02:43:32;;;;;;;10.30;3.70;;;14.30;79.00;;;;;;5088208;28;20203;-74
2022/07/09 02:45:58;;;;;;;9.10;4.10;;;14.30;79.30;;;;;;5080014;28;20183;-73
2022/07/09 02:48:25;;;;;;;7.10;4.20;;;14.30;79.50;;;;;;5070737;28;20430;-75
2022/07/09 02:50:51;;;;;;;5.60;4.20;;;14.30;79.30;;;;;;5082753;28;20195;-73
2022/07/09 02:53:18;;;;;;;6.63;4.13;;;14.20;79.50;;;;;;5087688;28;20830;-75
2022/07/09 02:55:44;;;;;;;6.33;4.03;;;14.20;79.60;;;;;;5082120;28;20514;-72
2022/07/09 02:58:10;;;;;;;5.13;3.30;;;14.20;79.70;;;;;;5086524;28;20421;-72
2022/07/09 03:00:36;;;;;;;5.87;3.87;;;14.20;79.50;;;;;;5091350;28;20198;-74
2022/07/09 03:03:02;;;;;;;10.13;4.10;;;14.10;80.00;;;;;;5097555;28;20502;-72
2022/07/09 03:05:28;;;;;;;6.03;4.00;;;14.00;80.30;;;;;;5099333;28;20493;-73
2022/07/09 03:07:53;;;;;;;9.40;4.47;;;14.00;80.60;;;;;;5090043;28;20190;-75
2022/07/09 03:10:19;;;;;;;10.20;4.70;;;14.00;80.60;;;;;;5068653;28;20175;-74
2022/07/09 03:12:44;;;;;;;10.77;4.93;;;14.00;80.80;;;;;;5076015;28;20306;-74
2022/07/09 03:15:13;;;;;;;6.43;3.97;;;14.00;80.90;;;;;;5082906;28;20336;-72
2022/07/09 03:17:38;;;;;;;9.90;4.53;;;14.00;80.90;;;;;;5079427;28;20215;-72
2022/07/09 03:20:04;;;;;;;5.07;3.43;;;14.10;80.30;;;;;;5086122;28;20511;-75
2022/07/09 03:22:30;;;;;;;7.13;4.37;;;14.20;79.90;;;;;;5082192;28;20205;-73
2022/07/09 03:24:56;;;;;;;4.73;3.33;;;14.20;79.70;;;;;;5075742;28;20520;-74
2022/07/09 03:27:22;;;;;;;6.93;4.00;;;14.20;80.00;;;;;;5079355;28;20190;-75
2022/07/09 03:29:47;;;;;;;6.67;3.93;;;14.30;79.70;;;;;;5085462;28;20429;-74
2022/07/09 03:32:13;;;;;;;5.30;3.87;;;14.30;79.50;;;;;;5078977;28;20222;-73
2022/07/09 03:34:39;;;;;;;9.33;4.00;;;14.50;78.90;;;;;;5088319;28;20218;-74
2022/07/09 03:37:05;;;;;;;9.07;4.63;;;14.50;78.70;;;;;;5065920;28;20555;-73
2022/07/09 03:39:31;;;;;;;8.47;3.67;;;14.50;78.40;;;;;;5090555;28;20471;-72
2022/07/09 03:41:56;;;;;;;7.77;3.90;;;14.40;78.60;;;;;;5078707;28;20469;-73
2022/07/09 03:44:22;;;;;;;6.80;4.00;;;14.20;79.30;;;;;;5087532;28;20184;-73
2022/07/09 03:46:47;;;;;;;6.73;4.20;;;14.20;79.70;;;;;;5079948;28;20673;-72
2022/07/09 03:49:13;;;;;;;9.50;4.33;;;14.20;80.00;;;;;;5088694;28;20201;-75
2022/07/09 03:51:39;;;;;;;8.50;4.30;;;14.20;80.00;;;;;;5066312;28;20699;-74
2022/07/09 03:54:04;;;;;;;7.47;4.10;;;14.20;80.00;;;;;;5082998;28;20236;-74
2022/07/09 03:56:30;;;;;;;5.97;3.53;;;14.20;80.20;;;;;;5087941;28;20204;-74
2022/07/09 03:58:55;;;;;;;5.53;3.83;;;14.20;79.90;;;;;;5083000;28;20188;-74
2022/07/09 04:01:21;;;;;;;6.53;4.20;;;14.20;79.60;;;;;;5076042;28;20200;-74
2022/07/09 04:03:47;;;;;;;8.60;4.40;;;14.20;79.50;;;;;;5086383;28;20212;-74
2022/07/09 04:06:12;;;;;;;6.10;3.80;;;14.20;79.30;;;;;;5079822;28;20225;-75
2022/07/09 04:08:38;;;;;;;7.47;3.97;;;14.30;79.50;;;;;;5068088;28;20180;-74
2022/07/09 04:11:04;;;;;;;7.00;4.47;;;14.40;79.30;;;;;;5079271;28;20212;-74
2022/07/09 04:13:29;;;;;;;9.73;4.50;;;14.40;79.20;;;;;;5081043;28;20204;-74
2022/07/09 04:15:55;;;;;;;6.67;3.93;;;14.60;78.90;;;;;;5063305;28;20268;-74
2022/07/09 04:18:20;;;;;;;6.53;3.80;;;14.70;78.10;;;;;;5089506;28;20565;-74
2022/07/09 04:20:46;;;;;;;8.57;4.20;;;14.70;77.80;;;;;;5083291;28;20187;-75
2022/07/09 04:23:12;;;;;;;7.03;4.37;;;14.80;78.00;;;;;;5083603;28;20204;-74
2022/07/09 04:25:37;;;;;;;7.50;4.43;;;14.70;78.00;;;;;;5087654;28;20194;-73
2022/07/09 04:28:05;;;;;;;9.20;3.97;;;14.70;78.30;;;;;;5081996;28;20223;-74
2022/07/09 04:30:30;;;;;;;8.60;4.27;;;14.70;78.10;;;;;;5087669;28;20194;-74
2022/07/09 04:32:56;;;;;;;9.23;3.80;;;14.70;78.30;;;;;;5086905;28;20466;-74
2022/07/09 04:35:22;;;;;;;6.50;4.33;;;14.60;78.60;;;;;;5085404;28;20464;-73
2022/07/09 04:37:48;;;;;;;5.33;4.27;;;14.60;78.90;;;;;;5085826;28;20456;-75
2022/07/09 04:40:14;;;;;;;6.20;4.23;;;14.60;78.70;;;;;;5067636;28;20183;-75
2022/07/09 04:42:40;;;;;;;4.93;3.53;;;14.70;79.00;;;;;;5096078;28;20195;-74
2022/07/09 04:45:06;;;;;;;6.63;3.70;;;14.80;78.60;;;;;;5094750;28;20457;-72
2022/07/09 04:47:31;;;;;;;5.67;4.00;;;14.90;78.00;;;;;;5085056;28;20330;-73
2022/07/09 04:49:57;;;;;;;9.47;5.00;;;14.90;77.60;;;;;;5088710;28;20931;-73
2022/07/09 04:52:26;;;;;;;9.00;3.80;;;14.90;77.10;;;;;;5078016;28;20690;-74
2022/07/09 04:54:52;;;;;;;9.57;4.03;;;15.00;76.40;;;;;;5081794;28;20202;-74
2022/07/09 04:57:18;;;;;;;8.90;4.27;;;15.00;75.90;;;;;;5060532;28;20641;-73
2022/07/09 04:59:44;;;;;;;6.90;4.53;;;15.00;75.90;;;;;;5088543;28;20477;-72
2022/07/09 05:02:09;;;;;;;7.87;4.67;;;14.90;76.20;;;;;;5074418;28;20216;-74
2022/07/09 05:04:35;;;;;;;6.10;4.10;;;14.90;76.40;;;;;;5082083;28;20199;-73
2022/07/09 05:07:01;;;;;;;7.60;3.87;;;14.90;76.40;;;;;;5075934;28;20188;-75
2022/07/09 05:09:27;;;;;;;7.67;3.93;;;14.90;76.70;;;;;;5069801;28;20596;-74
2022/07/09 05:11:54;;;;;;;4.90;4.10;;;14.80;77.10;;;;;;5058219;28;20637;-73
2022/07/09 05:14:19;;;;;;;7.70;4.87;;;14.70;77.40;;;;;;5081352;28;20426;-75
2022/07/09 05:16:45;;;;;;;7.97;4.27;;;14.70;77.40;;;;;;5080292;28;20890;-75
2022/07/09 05:19:11;;;;;;;12.67;4.90;;;14.70;77.70;;;;;;5084277;28;20179;-74
2022/07/09 05:21:41;;;;;;;8.20;4.90;;;14.80;78.00;;;;;;5083835;28;20188;-72
2022/07/09 05:24:07;;;;;;;7.40;4.20;;;14.80;77.80;;;;;;5085905;28;20430;-75
2022/07/09 05:26:34;;;;;;;6.83;4.10;;;14.80;77.80;;;;;;5090464;28;20797;-72
2022/07/09 05:28:59;;;;;;;8.77;4.37;;;14.90;77.70;;;;;;5079979;28;20425;-74
2022/07/09 05:31:25;;;;;;;5.47;4.27;;;14.90;77.70;;;;;;5086991;28;20426;-73
2022/07/09 05:33:51;;;;;;;7.10;4.77;;;15.00;78.00;;;;;;5081346;28;20245;-73
2022/07/09 05:36:17;;;;;;;6.40;4.03;;;15.10;77.40;;;;;;5087393;28;20586;-75
2022/07/09 05:38:43;;;;;;;5.87;4.20;;;15.20;77.40;;;;;;5083893;28;20459;-74
2022/07/09 05:41:10;;;;;;;6.97;4.30;;;15.30;77.10;;;;;;5083829;28;20453;-75
2022/07/09 05:43:36;;;;;;;11.73;4.87;;;15.40;76.70;;;;;;5084974;28;20821;-73
2022/07/09 05:46:02;;;;;;;6.83;4.37;;;15.60;76.20;;;;;;5092646;28;20443;-75
2022/07/09 05:48:28;;;;;;;5.57;4.00;;;15.80;75.40;;;;;;5086770;28;20430;-73
2022/07/09 05:50:54;;;;;;;5.93;4.43;;;15.80;74.50;;;;;;5098095;28;20568;-74
2022/07/09 05:53:20;;;;;;;6.10;4.27;;;15.90;74.30;;;;;;5088599;28;20204;-74
2022/07/09 05:55:46;;;;;;;6.33;4.23;;;16.00;73.50;;;;;;5097035;28;21393;-73
2022/07/09 05:58:12;;;;;;;6.30;3.90;;;16.10;72.90;;;;;;5090831;28;20448;-74
2022/07/09 06:00:37;;;;;;;7.50;4.60;;;16.20;72.70;;;;;;5078486;28;20181;-73
2022/07/09 06:03:03;;;;;;;8.13;4.40;;;16.30;72.00;;;;;;5080933;28;20223;-73
2022/07/09 06:05:29;;;;;;;8.93;5.17;;;16.40;72.00;;;;;;5089215;28;20198;-73
2022/07/09 06:07:54;;;;;;;7.13;4.30;;;16.60;71.80;;;;;;5082750;28;20679;-74
2022/07/09 06:10:20;;;;;;;6.07;4.07;;;16.70;71.30;;;;;;5090884;28;20178;-75
2022/07/09 06:12:46;;;;;;;9.70;4.80;;;16.80;71.40;;;;;;5081095;28;21011;-74
2022/07/09 06:15:12;;;;;;;9.67;5.70;;;16.80;71.80;;;;;;5089890;28;20183;-75
2022/07/09 06:17:37;;;;;;;14.17;5.50;;;16.90;72.00;;;;;;5085842;28;20209;-73
2022/07/09 06:20:05;;;;;;;6.00;4.50;;;16.90;72.30;;;;;;5067319;28;20457;-75
2022/07/09 06:22:30;;;;;;;11.37;6.30;;;17.00;72.00;;;;;;5084973;28;20269;-74
2022/07/09 06:24:56;;;;;;;10.83;5.60;;;17.10;72.10;;;;;;5090525;28;20449;-74
2022/07/09 06:27:22;;;;;;;8.03;4.80;;;17.20;72.30;;;;;;5085254;28;20210;-73
2022/07/09 06:29:47;;;;;;;11.93;5.87;;;17.20;72.10;;;;;;5091396;28;20823;-75
2022/07/09 06:32:13;;;;;;;10.07;5.37;;;17.40;71.80;;;;;;5084364;28;20289;-75
2022/07/09 06:34:38;;;;;;;10.10;5.53;;;17.50;71.60;;;;;;5081826;28;20586;-75
2022/07/09 06:37:04;;;;;;;10.50;5.30;;;17.60;71.30;;;;;;5084600;28;20215;-73
2022/07/09 06:39:45;;;;;;;6.60;4.90;;;17.70;70.80;;;;;;5091063;28;20557;-73
2022/07/09 06:42:13;;;;;;;11.87;5.33;;;17.80;70.80;;;;;;5089309;28;20459;-75
2022/07/09 06:44:39;;;;;;;10.07;5.60;;;17.90;70.70;;;;;;5090867;28;20871;-74
2022/07/09 06:47:05;;;;;;;9.63;5.57;;;17.90;69.70;;;;;;5080110;28;20425;-72
2022/07/09 06:49:31;;;;;;;8.10;5.20;;;17.90;70.20;;;;;;5080252;28;21095;-72
2022/07/09 06:51:57;;;;;;;10.10;5.90;;;18.00;70.40;;;;;;5085382;28;20956;-75
2022/07/09 06:54:23;;;;;;;8.47;5.37;;;18.10;69.90;;;;;;5074943;28;20523;-73
2022/07/09 06:56:48;;;;;;;10.33;4.60;;;18.20;69.50;;;;;;5084809;28;20592;-73
2022/07/09 06:59:14;;;;;;;8.63;5.27;;;18.40;69.20;;;;;;5080945;28;20185;-74
2022/07/09 07:01:40;;;;;;;7.73;5.07;;;18.50;68.90;;;;;;5085904;28;20282;-74
2022/07/09 07:04:06;;;;;;;8.60;4.70;;;18.60;68.00;;;;;;5076447;28;20239;-73
2022/07/09 07:06:32;;;;;;;9.43;4.87;;;18.70;67.20;;;;;;5087711;28;20241;-73
2022/07/09 07:08:58;;;;;;;8.10;4.60;;;18.90;66.90;;;;;;5080790;28;20421;-73
2022/07/09 07:11:24;;;;;;;9.43;5.50;;;19.00;65.40;;;;;;5085917;28;20186;-73
2022/07/09 07:13:49;;;;;;;7.83;4.80;;;19.00;64.40;;;;;;5084448;28;20466;-74
2022/07/09 07:16:15;;;;;;;7.53;4.53;;;19.00;65.00;;;;;;5086833;28;20218;-74
2022/07/09 07:18:40;;;;;;;7.93;4.40;;;19.20;64.50;;;;;;5089428;28;20206;-75
2022/07/09 07:21:06;;;;;;;10.40;4.80;;;19.30;63.50;;;;;;5093270;28;20207;-74
2022/07/09 07:23:32;;;;;;;10.50;4.40;;;19.30;63.50;;;;;;5089359;28;20353;-73
2022/07/09 07:25:59;;;;;;;9.87;4.87;;;19.40;63.40;;;;;;5089956;28;20194;-74
2022/07/09 07:28:24;;;;;;;9.83;4.43;;;19.60;63.20;;;;;;5085966;28;20284;-74
2022/07/09 07:30:50;;;;;;;7.40;4.20;;;19.80;62.50;;;;;;5088702;28;20438;-73
2022/07/09 07:33:15;;;;;;;9.60;4.57;;;20.00;61.70;;;;;;5082879;28;20200;-73
2022/07/09 07:35:41;;;;;;;5.57;4.10;;;20.00;61.50;;;;;;5084108;28;20183;-73
2022/07/09 07:38:07;;;;;;;6.80;4.20;;;20.00;61.50;;;;;;5081738;28;20187;-74
2022/07/09 07:40:32;;;;;;;11.40;5.47;;;20.00;61.60;;;;;;5090744;28;20507;-74
2022/07/09 07:42:58;;;;;;;6.93;3.70;;;20.20;61.90;;;;;;5082860;28;20782;-73
2022/07/09 07:45:24;;;;;;;6.73;4.10;;;20.20;61.70;;;;;;5085200;28;20193;-73
2022/07/09 07:47:49;;;;;;;7.80;5.37;;;20.20;61.90;;;;;;5080987;28;20237;-73
2022/07/09 07:50:15;;;;;;;8.70;5.37;;;20.20;62.30;;;;;;5082213;28;20175;-74
2022/07/09 07:52:40;;;;;;;15.93;6.17;;;20.20;63.40;;;;;;5064312;28;20873;-75
2022/07/09 07:55:06;;;;;;;9.80;4.80;;;20.20;64.10;;;;;;5083387;28;20211;-75
2022/07/09 07:57:32;;;;;;;7.17;5.40;;;20.20;64.50;;;;;;5086681;28;20211;-74
2022/07/09 07:59:57;;;;;;;6.07;4.70;;;20.20;64.50;;;;;;5082728;28;20457;-73
2022/07/09 08:02:23;;;;;;;16.77;5.60;;;20.20;64.80;;;;;;5082591;28;20285;-73
2022/07/09 08:04:49;;;;;;;6.07;4.90;;;20.20;64.20;;;;;;5083321;28;20234;-73
2022/07/09 08:07:14;;;;;;;6.60;4.63;;;20.30;63.50;;;;;;5068528;28;20736;-74
2022/07/09 08:09:40;;;;;;;9.93;4.77;;;20.40;63.50;;;;;;5089137;28;20195;-74
2022/07/09 08:12:06;;;;;;;9.30;4.93;;;20.40;63.80;;;;;;5081783;28;21141;-73
2022/07/09 08:14:32;;;;;;;9.33;4.93;;;20.50;64.20;;;;;;5084623;28;20537;-73
2022/07/09 08:16:57;;;;;;;6.80;3.90;;;20.60;64.10;;;;;;5086343;28;20981;-73
2022/07/09 08:19:23;;;;;;;7.20;4.00;;;20.70;63.40;;;;;;5083331;28;20200;-73
2022/07/09 08:21:49;;;;;;;6.90;4.10;;;20.90;62.00;;;;;;5089869;28;20238;-72
2022/07/09 08:24:14;;;;;;;7.57;4.47;;;20.90;62.60;;;;;;5080502;28;20177;-74
2022/07/09 08:26:40;;;;;;;5.30;3.70;;;20.90;61.30;;;;;;5087858;28;20268;-74
2022/07/09 08:29:05;;;;;;;10.20;4.40;;;20.90;60.00;;;;;;5057573;28;20235;-74
2022/07/09 08:31:31;;;;;;;6.10;3.60;;;21.10;61.50;;;;;;5088414;28;20185;-74
2022/07/09 08:33:56;;;;;;;4.70;3.43;;;21.10;60.00;;;;;;5062422;28;20217;-73
2022/07/09 08:36:22;;;;;;;9.93;3.77;;;21.00;58.90;;;;;;5085754;28;20324;-73
2022/07/09 08:38:49;;;;;;;3.70;2.83;;;21.00;59.70;;;;;;5082659;28;20185;-73
2022/07/09 08:41:19;;;;;;;9.73;3.27;;;21.10;59.50;;;;;;5082741;28;20235;-73
2022/07/09 08:43:50;;;;;;;5.67;2.80;;;21.20;59.90;;;;;;5080277;28;20514;-73
2022/07/09 08:46:16;;;;;;;4.40;3.30;;;21.20;60.30;;;;;;5090166;28;20500;-73
2022/07/09 08:48:43;;;;;;;5.67;3.17;;;21.30;60.30;;;;;;5086426;28;20882;-74
2022/07/09 08:51:09;;;;;;;6.60;3.63;;;21.30;60.30;;;;;;5063494;28;20894;-73
2022/07/09 08:53:40;;;;;;;5.67;3.37;;;21.20;59.70;;;;;;5080160;28;20472;-74
2022/07/09 08:56:06;;;;;;;9.70;3.60;;;21.20;60.10;;;;;;5064770;28;20487;-73
2022/07/09 08:58:32;;;;;;;6.13;2.97;;;21.30;60.00;;;;;;5074301;28;20424;-74
2022/07/09 09:00:58;;;;;;;6.73;3.30;;;21.40;59.70;;;;;;5084853;28;20437;-74
2022/07/09 09:03:24;;;;;;;10.17;3.73;;;21.50;58.80;;;;;;5082551;28;20212;-74
2022/07/09 09:06:21;;;;;;;4.40;2.93;;;21.70;58.20;;;;;;5077157;28;20456;-73
2022/07/09 09:08:47;;;;;;;4.13;2.70;;;21.80;56.80;;;;;;5020941;28;20530;-73
2022/07/09 09:11:22;;;;;;;5.87;3.27;;;21.90;57.20;;;;;;5020995;28;20460;-74
2022/07/09 09:13:49;;;;;;;3.27;2.73;;;21.90;56.60;;;;;;5027123;28;20693;-74
2022/07/09 09:16:16;;;;;;;6.97;3.30;;;22.00;57.00;;;;;;5019595;28;20571;-74
2022/07/09 09:19:00;;;;;;;3.43;3.00;;;22.10;57.40;;;;;;5025274;28;20864;-73
2022/07/09 09:21:27;;;;;;;4.20;3.00;;;22.20;57.00;;;;;;5026522;28;20442;-76
2022/07/09 09:23:58;;;;;;;6.47;3.37;;;22.20;57.20;;;;;;5024380;28;20468;-74
2022/07/09 09:26:25;;;;;;;5.60;3.53;;;22.40;56.90;;;;;;5025577;28;20529;-74
2022/07/09 09:28:51;;;;;;;6.03;3.07;;;22.40;56.20;;;;;;5027122;28;20446;-74
2022/07/09 09:31:19;;;;;;;3.60;2.80;;;22.50;55.80;;;;;;5025477;28;20545;-73
2022/07/09 09:33:45;;;;;;;5.70;2.80;;;22.60;55.40;;;;;;5032110;28;20227;-74
2022/07/09 09:36:10;;;;;;;4.10;2.73;;;22.60;54.90;;;;;;5028887;28;20583;-74
2022/07/09 09:38:36;;;;;;;3.97;2.60;;;22.70;55.00;;;;;;5018984;28;20771;-73
2022/07/09 09:41:02;;;;;;;4.73;3.70;;;22.80;55.00;;;;;;5023244;28;20231;-75
2022/07/09 09:43:31;;;;;;;5.07;2.80;;;22.80;54.40;;;;;;5028296;28;20213;-73
2022/07/09 09:45:59;;;;;;;3.13;2.20;;;22.90;54.40;;;;;;5083602;28;20203;-73
2022/07/09 09:48:24;;;;;;;4.27;2.70;;;23.00;53.80;;;;;;5094265;28;21177;-74
2022/07/09 09:50:53;;;;;;;6.03;3.13;;;23.10;52.90;;;;;;5082437;28;20437;-73
2022/07/09 09:53:20;;;;;;;4.90;2.80;;;23.20;52.90;;;;;;5080054;28;20755;-76
2022/07/09 09:55:46;;;;;;;4.87;2.90;;;23.50;52.50;;;;;;5091743;28;20460;-74
2022/07/09 09:58:13;;;;;;;4.73;2.90;;;23.50;51.60;;;;;;5081044;28;21117;-73
2022/07/09 10:00:39;;;;;;;4.43;2.47;;;23.60;51.80;;;;;;5079701;28;20198;-74
2022/07/09 10:03:06;;;;;;;5.03;3.40;;;23.80;51.00;;;;;;5082489;28;20468;-74
2022/07/09 10:05:32;;;;;;;5.43;3.10;;;23.90;50.60;;;;;;5067473;28;20422;-73
2022/07/09 10:07:58;;;;;;;4.00;2.90;;;23.90;51.60;;;;;;5081084;28;20438;-73
2022/07/09 10:10:24;;;;;;;3.70;2.73;;;24.00;50.60;;;;;;5086090;28;20431;-74
2022/07/09 10:12:49;;;;;;;4.33;2.90;;;23.80;50.90;;;;;;5081782;28;20219;-74
2022/07/09 10:15:26;;;;;;;3.13;2.50;;;23.90;51.20;;;;;;5087477;28;20190;-75
2022/07/09 10:17:53;;;;;;;5.53;2.97;;;24.00;50.60;;;;;;5083781;28;20628;-74
2022/07/09 10:20:33;;;;;;;7.97;3.50;;;23.80;50.50;;;;;;5064379;28;20523;-74
2022/07/09 10:22:59;;;;;;;4.10;2.50;;;23.70;51.20;;;;;;5086350;28;20459;-74
2022/07/09 10:25:29;;;;;;;6.13;2.87;;;23.60;50.30;;;;;;5083790;28;20999;-73
2022/07/09 10:27:55;;;;;;;4.13;2.87;;;23.50;50.10;;;;;;5089194;28;20490;-75
2022/07/09 10:30:24;;;;;;;3.57;2.30;;;23.20;49.90;;;;;;5084984;28;20437;-75
2022/07/09 10:33:04;;;;;;;3.77;3.13;;;23.10;50.50;;;;;;5089362;28;20211;-75
2022/07/09 10:35:30;;;;;;;5.23;2.20;;;23.10;49.90;;;;;;5087180;28;20431;-76
2022/07/09 10:37:56;;;;;;;3.10;2.43;;;23.50;49.90;;;;;;5070271;28;20549;-75
2022/07/09 10:40:24;;;;;;;4.93;2.47;;;24.10;48.70;;;;;;5083555;28;20523;-74
2022/07/09 10:43:01;;;;;;;2.83;2.50;;;24.60;46.90;;;;;;5081128;28;20198;-75
2022/07/09 10:45:27;;;;;;;3.80;2.30;;;24.90;45.40;;;;;;5084254;28;20442;-75
2022/07/09 10:47:55;;;;;;;2.50;1.90;;;24.80;46.10;;;;;;5089681;28;20507;-73
2022/07/09 10:50:21;;;;;;;6.17;2.00;;;25.00;43.80;;;;;;5085040;28;20429;-75
2022/07/09 10:52:48;;;;;;;4.80;2.40;;;25.10;43.20;;;;;;5083218;28;20520;-74
2022/07/09 10:55:19;;;;;;;2.67;2.17;;;25.30;42.70;;;;;;5086320;28;20511;-75
2022/07/09 10:57:45;;;;;;;4.93;2.40;;;25.30;43.00;;;;;;5081081;28;20463;-75
2022/07/09 11:00:17;;;;;;;5.00;2.77;;;25.20;43.50;;;;;;5065508;28;20416;-75
2022/07/09 11:02:55;;;;;;;2.87;2.40;;;25.30;43.80;;;;;;5084056;28;20563;-75
2022/07/09 11:05:22;;;;;;;3.93;2.70;;;24.90;44.60;;;;;;5088178;28;20447;-75
2022/07/09 11:08:04;;;;;;;4.57;2.43;;;24.50;45.80;;;;;;5077382;28;20947;-75
2022/07/09 11:10:32;;;;;;;3.17;2.00;;;24.50;45.80;;;;;;5088828;28;20421;-74
2022/07/09 11:13:00;;;;;;;2.23;1.80;;;24.40;45.00;;;;;;5079727;28;20458;-74
2022/07/09 11:15:33;;;;;;;3.83;1.90;;;24.10;44.50;;;;;;5090302;28;20448;-75
2022/07/09 11:18:00;;;;;;;2.80;2.27;;;24.70;44.50;;;;;;5084116;28;20909;-75
2022/07/09 11:20:30;;;;;;;3.53;2.30;;;25.10;43.00;;;;;;5086309;28;20427;-76
2022/07/09 11:22:57;;;;;;;4.50;2.90;;;25.10;44.50;;;;;;5087566;28;20457;-75
2022/07/09 11:25:27;;;;;;;5.13;2.87;;;25.10;45.30;;;;;;5091006;28;20443;-74
2022/07/09 11:27:54;;;;;;;3.83;2.40;;;24.80;46.10;;;;;;5083698;28;20571;-74
2022/07/09 11:30:19;;;;;;;4.40;2.70;;;24.60;46.30;;;;;;5093816;28;20414;-74
2022/07/09 11:32:46;;;;;;;3.50;2.40;;;24.20;47.40;;;;;;5090544;28;20452;-74
2022/07/09 11:35:11;;;;;;;5.87;2.40;;;24.00;48.10;;;;;;5086148;28;20210;-75
2022/07/09 11:37:44;;;;;;;4.30;2.30;;;23.90;48.30;;;;;;5067443;28;20495;-74
2022/07/09 11:40:17;;;;;;;4.63;2.63;;;24.10;48.30;;;;;;5076872;28;20183;-75
2022/07/09 11:42:43;;;;;;;4.53;2.50;;;24.30;48.20;;;;;;5086020;28;20542;-74
2022/07/09 11:45:09;;;;;;;3.57;2.70;;;24.40;48.10;;;;;;5077562;28;20519;-74
2022/07/09 11:47:37;;;;;;;3.83;2.57;;;24.60;47.40;;;;;;5085271;28;20196;-74
2022/07/09 11:50:11;;;;;;;2.77;2.33;;;24.90;47.00;;;;;;5082337;28;20544;-75
2022/07/09 11:52:47;;;;;;;3.90;2.83;;;25.10;46.30;;;;;;5088920;28;20984;-74
2022/07/09 11:55:16;;;;;;;3.90;2.00;;;25.00;46.70;;;;;;5071354;28;20458;-74
2022/07/09 11:57:52;;;;;;;4.17;2.20;;;25.10;46.60;;;;;;5070182;28;20511;-74
2022/07/09 12:00:27;;;;;;;7.00;2.77;;;25.10;45.70;;;;;;5088240;28;20508;-75
2022/07/09 12:02:54;;;;;;;5.97;2.97;;;24.80;46.60;;;;;;5086833;28;20508;-73
2022/07/09 12:05:30;;;;;;;5.37;2.33;;;24.90;46.60;;;;;;5074330;28;20469;-74
2022/07/09 12:07:59;;;;;;;4.47;2.43;;;25.00;46.90;;;;;;5063812;28;20766;-74
2022/07/09 12:10:45;;;;;;;3.60;2.50;;;25.40;45.70;;;;;;5088448;28;20435;-73
2022/07/09 12:13:11;;;;;;;2.47;2.20;;;25.80;44.30;;;;;;5080881;28;20463;-75
2022/07/09 12:15:36;;;;;;;2.50;1.70;;;26.00;44.10;;;;;;5084237;28;20894;-73
2022/07/09 12:18:02;;;;;;;2.50;2.20;;;26.00;44.10;;;;;;5064767;28;20210;-73
2022/07/09 12:20:31;;;;;;;4.27;2.67;;;26.30;43.70;;;;;;5085201;28;20193;-74
2022/07/09 12:22:57;;;;;;;3.70;2.17;;;26.20;43.90;;;;;;5083603;28;20203;-74
2022/07/09 12:25:23;;;;;;;7.57;2.47;;;24.70;48.20;;;;;;5089021;28;20424;-73
2022/07/09 12:27:49;;;;;;;3.47;2.30;;;24.30;48.70;;;;;;5090096;28;20421;-74
2022/07/09 12:30:16;;;;;;;3.33;2.37;;;24.60;49.00;;;;;;5091425;28;20515;-76
2022/07/09 12:32:42;;;;;;;3.53;2.40;;;24.60;48.10;;;;;;5085630;28;20577;-74
2022/07/09 12:35:09;;;;;;;3.30;2.20;;;24.60;48.60;;;;;;5071634;28;20443;-73
2022/07/09 12:37:35;;;;;;;6.37;2.50;;;24.90;48.30;;;;;;5090620;28;20711;-73
2022/07/09 12:40:01;;;;;;;3.70;3.07;;;25.20;47.50;;;;;;5089108;28;20534;-74
2022/07/09 12:42:27;;;;;;;3.20;2.37;;;25.40;47.00;;;;;;5089462;28;20457;-74